Aeroporto :
LOGIN :

Iscrizione | Disclaimer

   EN    FR    IT 

 










Sommario :    VFR   VFR Marginale   IFR   IFR Intensivo   IFR Molto Intensivo
Visibilità : 
Base nubi : 
>= 8 km
>= 3000ft
5 / 8 km
1000 / 3000 ft
1500m / 5 km
500 / 1000 ft
800 / 1500m
200 / 500 ft
< 800m
< 200 ft
Simboli :   Temporali  Nebbia  Neve Forte  Precipitazioni Forti  Vento > 20 kt
SIGMETs :   Varie  Temporali  Ghiacco  Turbolenza  Onda orograficha  Ceneri Vulcaniche







- Altitudine del aeroporto : 2077 ft
- Codice IATA : FMM


EDJA - Memmingen

ULTIMO METAR :
  • 250650Z VRB03KT 9999 FEW057 13/09 Q1016

METARs OBSOLETI :
  • 250620Z VRB02KT CAVOK 12/10 Q1015
  • 250550Z 21004KT 190V250 CAVOK 11/10 Q1015
  • 250520Z VRB03KT CAVOK 11/09 Q1015
  • 250450Z 15002KT CAVOK 08/08 Q1015
  • 250420Z VRB02KT CAVOK 07/06 Q1015

TAF TAF EDJA
Valido dal 25 a 06 ore il 25 a 15 ore UTC


250500Z 2506/2515 VRB02KT 9999 FEW030
BECMG 2507/2509 32005KT
Nessun NOTAM noto per questo aeroporto.



MetMap, La meteo Aeronautica in un colpo d'occhio ! - Copyright ORBIFLY Dicembre 2007 - Disclaimer

ORBIFLY MET'MAP TEAM :

Programmazione e sviluppo : Alexandra Zaïnal
Concezione e sviluppo : Baudouin d'Aumeries
Co-Programmazione e sviluppo : Marc-Olivier Méhu
Supporto tecnico e logistico : Manuel Goepfert
Aiuto per la traduzione : Arnaldo La Scala

Contatto : metmap@orbifly.com




FONTI E CREDITI :

   NOAA